sensor_id;sensor_type;location;lat;lon;timestamp;temperature;humidity
13268;DHT22;6702;47.068;15.458;2023-02-26T00:02:00;5.60;99.90
13268;DHT22;6702;47.068;15.458;2023-02-26T00:05:04;5.70;99.90
13268;DHT22;6702;47.068;15.458;2023-02-26T00:08:09;5.70;99.90
13268;DHT22;6702;47.068;15.458;2023-02-26T00:11:13;5.70;99.90
13268;DHT22;6702;47.068;15.458;2023-02-26T00:14:17;5.70;99.90
13268;DHT22;6702;47.068;15.458;2023-02-26T00:17:28;5.70;99.90
13268;DHT22;6702;47.068;15.458;2023-02-26T00:20:36;5.70;99.90
13268;DHT22;6702;47.068;15.458;2023-02-26T00:23:40;5.70;99.90
13268;DHT22;6702;47.068;15.458;2023-02-26T00:26:44;5.70;99.90
13268;DHT22;6702;47.068;15.458;2023-02-26T00:29:47;5.80;99.90
13268;DHT22;6702;47.068;15.458;2023-02-26T00:32:51;5.60;99.90
13268;DHT22;6702;47.068;15.458;2023-02-26T00:36:01;5.60;99.90
13268;DHT22;6702;47.068;15.458;2023-02-26T00:39:17;5.50;99.90
13268;DHT22;6702;47.068;15.458;2023-02-26T00:42:23;5.50;99.90
13268;DHT22;6702;47.068;15.458;2023-02-26T00:45:27;5.40;99.90
13268;DHT22;6702;47.068;15.458;2023-02-26T00:48:39;5.40;99.90
13268;DHT22;6702;47.068;15.458;2023-02-26T00:51:48;5.40;99.90
13268;DHT22;6702;47.068;15.458;2023-02-26T00:54:54;5.50;99.90
13268;DHT22;6702;47.068;15.458;2023-02-26T00:57:57;5.40;99.90
13268;DHT22;6702;47.068;15.458;2023-02-26T01:01:01;5.40;99.90
13268;DHT22;6702;47.068;15.458;2023-02-26T01:04:05;5.50;99.90
13268;DHT22;6702;47.068;15.458;2023-02-26T01:07:08;5.40;99.90
13268;DHT22;6702;47.068;15.458;2023-02-26T01:10:14;5.30;99.90
13268;DHT22;6702;47.068;15.458;2023-02-26T01:13:18;5.20;99.90
13268;DHT22;6702;47.068;15.458;2023-02-26T01:16:24;5.20;99.90
13268;DHT22;6702;47.068;15.458;2023-02-26T01:19:35;5.20;99.90
13268;DHT22;6702;47.068;15.458;2023-02-26T01:22:43;5.20;99.90
13268;DHT22;6702;47.068;15.458;2023-02-26T01:25:51;5.10;99.90
13268;DHT22;6702;47.068;15.458;2023-02-26T01:28:56;5.20;99.90
13268;DHT22;6702;47.068;15.458;2023-02-26T01:32:05;5.10;99.90
13268;DHT22;6702;47.068;15.458;2023-02-26T01:35:19;5.00;99.90
13268;DHT22;6702;47.068;15.458;2023-02-26T01:38:29;4.90;99.90
13268;DHT22;6702;47.068;15.458;2023-02-26T01:41:38;4.90;99.90
13268;DHT22;6702;47.068;15.458;2023-02-26T01:44:54;4.90;99.90
13268;DHT22;6702;47.068;15.458;2023-02-26T01:48:03;4.90;99.90
13268;DHT22;6702;47.068;15.458;2023-02-26T01:51:08;4.80;99.90
13268;DHT22;6702;47.068;15.458;2023-02-26T01:54:12;4.80;99.90
13268;DHT22;6702;47.068;15.458;2023-02-26T01:57:17;4.80;99.90
13268;DHT22;6702;47.068;15.458;2023-02-26T02:00:21;4.70;99.90
13268;DHT22;6702;47.068;15.458;2023-02-26T02:03:25;4.70;99.90
13268;DHT22;6702;47.068;15.458;2023-02-26T02:06:30;4.70;99.90
13268;DHT22;6702;47.068;15.458;2023-02-26T02:09:34;4.60;99.90
13268;DHT22;6702;47.068;15.458;2023-02-26T02:12:44;4.60;99.90
13268;DHT22;6702;47.068;15.458;2023-02-26T02:15:56;4.50;99.90
13268;DHT22;6702;47.068;15.458;2023-02-26T02:19:13;4.50;99.90
13268;DHT22;6702;47.068;15.458;2023-02-26T02:22:39;4.50;99.90
13268;DHT22;6702;47.068;15.458;2023-02-26T02:33:16;4.50;99.90
13268;DHT22;6702;47.068;15.458;2023-02-26T02:36:26;4.50;99.90
13268;DHT22;6702;47.068;15.458;2023-02-26T02:39:33;4.50;99.90
13268;DHT22;6702;47.068;15.458;2023-02-26T02:42:43;4.60;99.90
13268;DHT22;6702;47.068;15.458;2023-02-26T02:45:50;4.60;99.90
13268;DHT22;6702;47.068;15.458;2023-02-26T02:48:59;4.70;99.90
13268;DHT22;6702;47.068;15.458;2023-02-26T02:52:08;4.60;99.90
13268;DHT22;6702;47.068;15.458;2023-02-26T02:55:15;4.60;99.90
13268;DHT22;6702;47.068;15.458;2023-02-26T02:58:23;4.60;99.90
13268;DHT22;6702;47.068;15.458;2023-02-26T03:01:27;4.60;99.90
13268;DHT22;6702;47.068;15.458;2023-02-26T03:04:33;4.60;99.90
13268;DHT22;6702;47.068;15.458;2023-02-26T03:07:42;4.60;99.90
13268;DHT22;6702;47.068;15.458;2023-02-26T03:10:46;4.60;99.90
13268;DHT22;6702;47.068;15.458;2023-02-26T03:13:51;4.50;99.90
13268;DHT22;6702;47.068;15.458;2023-02-26T03:17:01;4.40;99.90
13268;DHT22;6702;47.068;15.458;2023-02-26T03:20:16;4.50;99.90
13268;DHT22;6702;47.068;15.458;2023-02-26T03:23:23;4.40;99.90
13268;DHT22;6702;47.068;15.458;2023-02-26T03:26:31;4.40;99.90
13268;DHT22;6702;47.068;15.458;2023-02-26T03:29:41;4.40;99.90
13268;DHT22;6702;47.068;15.458;2023-02-26T03:32:51;4.30;99.90
13268;DHT22;6702;47.068;15.458;2023-02-26T03:36:01;4.10;99.90
13268;DHT22;6702;47.068;15.458;2023-02-26T03:39:10;4.10;99.90
13268;DHT22;6702;47.068;15.458;2023-02-26T03:42:19;4.10;99.90
13268;DHT22;6702;47.068;15.458;2023-02-26T03:45:28;4.20;99.90
13268;DHT22;6702;47.068;15.458;2023-02-26T03:48:34;4.20;99.90
13268;DHT22;6702;47.068;15.458;2023-02-26T03:51:40;4.20;99.90
13268;DHT22;6702;47.068;15.458;2023-02-26T03:54:50;4.20;99.90
13268;DHT22;6702;47.068;15.458;2023-02-26T03:57:54;4.20;99.90
13268;DHT22;6702;47.068;15.458;2023-02-26T04:01:01;4.30;99.90
13268;DHT22;6702;47.068;15.458;2023-02-26T04:04:08;4.30;99.90
13268;DHT22;6702;47.068;15.458;2023-02-26T04:07:15;4.30;99.90
13268;DHT22;6702;47.068;15.458;2023-02-26T04:10:21;4.40;99.90
13268;DHT22;6702;47.068;15.458;2023-02-26T04:13:27;4.50;99.90
13268;DHT22;6702;47.068;15.458;2023-02-26T04:16:30;4.50;99.90
13268;DHT22;6702;47.068;15.458;2023-02-26T04:19:33;4.40;99.90
13268;DHT22;6702;47.068;15.458;2023-02-26T04:22:38;4.40;99.90
13268;DHT22;6702;47.068;15.458;2023-02-26T04:25:41;4.40;99.90
13268;DHT22;6702;47.068;15.458;2023-02-26T04:28:44;4.40;99.90
13268;DHT22;6702;47.068;15.458;2023-02-26T04:31:48;4.40;99.90
13268;DHT22;6702;47.068;15.458;2023-02-26T04:34:51;4.40;99.90
13268;DHT22;6702;47.068;15.458;2023-02-26T04:37:56;4.40;99.90
13268;DHT22;6702;47.068;15.458;2023-02-26T04:40:59;4.40;99.90
13268;DHT22;6702;47.068;15.458;2023-02-26T04:44:03;4.30;99.90
13268;DHT22;6702;47.068;15.458;2023-02-26T04:47:06;4.30;99.90
13268;DHT22;6702;47.068;15.458;2023-02-26T04:50:10;4.40;99.90
13268;DHT22;6702;47.068;15.458;2023-02-26T04:53:15;4.40;99.90
13268;DHT22;6702;47.068;15.458;2023-02-26T04:56:18;4.40;99.90
13268;DHT22;6702;47.068;15.458;2023-02-26T04:59:21;4.50;99.90
13268;DHT22;6702;47.068;15.458;2023-02-26T05:02:25;4.50;99.90
13268;DHT22;6702;47.068;15.458;2023-02-26T05:05:28;4.50;99.90
13268;DHT22;6702;47.068;15.458;2023-02-26T05:08:33;4.50;99.90
13268;DHT22;6702;47.068;15.458;2023-02-26T05:11:36;4.50;99.90
13268;DHT22;6702;47.068;15.458;2023-02-26T05:14:39;4.50;99.90
13268;DHT22;6702;47.068;15.458;2023-02-26T05:17:42;4.60;99.90
13268;DHT22;6702;47.068;15.458;2023-02-26T05:20:50;4.60;99.90
13268;DHT22;6702;47.068;15.458;2023-02-26T05:23:54;4.60;99.90
13268;DHT22;6702;47.068;15.458;2023-02-26T05:26:58;4.60;99.90
13268;DHT22;6702;47.068;15.458;2023-02-26T05:30:01;4.50;99.90
13268;DHT22;6702;47.068;15.458;2023-02-26T05:33:04;4.50;99.90
13268;DHT22;6702;47.068;15.458;2023-02-26T05:36:08;4.40;99.90
13268;DHT22;6702;47.068;15.458;2023-02-26T05:39:12;4.40;99.90
13268;DHT22;6702;47.068;15.458;2023-02-26T05:42:16;4.40;99.90
13268;DHT22;6702;47.068;15.458;2023-02-26T05:45:19;4.50;99.90
13268;DHT22;6702;47.068;15.458;2023-02-26T05:48:23;4.50;99.90
13268;DHT22;6702;47.068;15.458;2023-02-26T05:51:26;4.50;99.90
13268;DHT22;6702;47.068;15.458;2023-02-26T05:54:31;4.50;99.90
13268;DHT22;6702;47.068;15.458;2023-02-26T05:57:35;4.60;99.90
13268;DHT22;6702;47.068;15.458;2023-02-26T06:00:38;4.60;99.90
13268;DHT22;6702;47.068;15.458;2023-02-26T06:03:41;4.60;99.90
13268;DHT22;6702;47.068;15.458;2023-02-26T06:06:45;4.60;99.90
13268;DHT22;6702;47.068;15.458;2023-02-26T06:09:50;4.70;99.90
13268;DHT22;6702;47.068;15.458;2023-02-26T06:12:53;4.60;99.90
13268;DHT22;6702;47.068;15.458;2023-02-26T06:15:56;4.70;99.90
13268;DHT22;6702;47.068;15.458;2023-02-26T06:19:00;4.70;99.90
13268;DHT22;6702;47.068;15.458;2023-02-26T06:22:03;4.80;99.90
13268;DHT22;6702;47.068;15.458;2023-02-26T06:25:08;4.80;99.90
13268;DHT22;6702;47.068;15.458;2023-02-26T06:28:11;4.80;99.90
13268;DHT22;6702;47.068;15.458;2023-02-26T06:31:15;4.70;99.90
13268;DHT22;6702;47.068;15.458;2023-02-26T06:34:18;4.80;99.90
13268;DHT22;6702;47.068;15.458;2023-02-26T06:37:23;4.90;99.90
13268;DHT22;6702;47.068;15.458;2023-02-26T06:40:27;4.90;99.90
13268;DHT22;6702;47.068;15.458;2023-02-26T06:43:31;4.90;99.90
13268;DHT22;6702;47.068;15.458;2023-02-26T06:46:34;5.00;99.90
13268;DHT22;6702;47.068;15.458;2023-02-26T06:49:37;5.10;99.90
13268;DHT22;6702;47.068;15.458;2023-02-26T06:52:41;5.20;99.90
13268;DHT22;6702;47.068;15.458;2023-02-26T06:55:46;5.30;99.90
13268;DHT22;6702;47.068;15.458;2023-02-26T06:58:51;5.50;99.90
13268;DHT22;6702;47.068;15.458;2023-02-26T07:01:55;5.70;99.90
13268;DHT22;6702;47.068;15.458;2023-02-26T07:04:58;5.80;99.90
13268;DHT22;6702;47.068;15.458;2023-02-26T07:08:02;5.90;99.90
13268;DHT22;6702;47.068;15.458;2023-02-26T07:11:07;6.10;99.90
13268;DHT22;6702;47.068;15.458;2023-02-26T07:14:11;6.20;99.90
13268;DHT22;6702;47.068;15.458;2023-02-26T07:17:14;6.30;99.90
13268;DHT22;6702;47.068;15.458;2023-02-26T07:20:21;6.50;99.90
13268;DHT22;6702;47.068;15.458;2023-02-26T07:23:24;6.60;99.40
13268;DHT22;6702;47.068;15.458;2023-02-26T07:26:29;6.80;99.30
13268;DHT22;6702;47.068;15.458;2023-02-26T07:29:32;6.90;98.70
13268;DHT22;6702;47.068;15.458;2023-02-26T07:32:35;7.10;98.00
13268;DHT22;6702;47.068;15.458;2023-02-26T07:35:39;7.30;97.40
13268;DHT22;6702;47.068;15.458;2023-02-26T07:38:42;7.50;96.70
13268;DHT22;6702;47.068;15.458;2023-02-26T07:41:46;7.70;96.10
13268;DHT22;6702;47.068;15.458;2023-02-26T07:44:50;7.80;95.20
13268;DHT22;6702;47.068;15.458;2023-02-26T07:47:53;7.90;95.00
13268;DHT22;6702;47.068;15.458;2023-02-26T07:50:56;8.10;94.60
13268;DHT22;6702;47.068;15.458;2023-02-26T07:53:59;8.10;92.60
13268;DHT22;6702;47.068;15.458;2023-02-26T07:57:04;8.20;92.70
13268;DHT22;6702;47.068;15.458;2023-02-26T08:00:09;8.20;91.30
13268;DHT22;6702;47.068;15.458;2023-02-26T08:03:12;8.40;90.50
13268;DHT22;6702;47.068;15.458;2023-02-26T08:06:16;8.20;90.00
13268;DHT22;6702;47.068;15.458;2023-02-26T08:09:19;8.10;85.50
13268;DHT22;6702;47.068;15.458;2023-02-26T08:12:24;7.90;83.80
13268;DHT22;6702;47.068;15.458;2023-02-26T08:15:27;7.80;85.00
13268;DHT22;6702;47.068;15.458;2023-02-26T08:18:31;7.90;86.50
13268;DHT22;6702;47.068;15.458;2023-02-26T08:21:34;8.10;85.80
13268;DHT22;6702;47.068;15.458;2023-02-26T08:24:37;8.30;83.10
13268;DHT22;6702;47.068;15.458;2023-02-26T08:27:42;8.50;82.80
13268;DHT22;6702;47.068;15.458;2023-02-26T08:30:45;8.50;81.20
13268;DHT22;6702;47.068;15.458;2023-02-26T08:33:48;8.60;80.00
13268;DHT22;6702;47.068;15.458;2023-02-26T08:36:51;8.80;78.30
13268;DHT22;6702;47.068;15.458;2023-02-26T08:39:55;9.40;77.70
13268;DHT22;6702;47.068;15.458;2023-02-26T08:42:59;9.80;73.20
13268;DHT22;6702;47.068;15.458;2023-02-26T08:46:04;10.90;67.50
13268;DHT22;6702;47.068;15.458;2023-02-26T08:49:08;11.90;60.90
13268;DHT22;6702;47.068;15.458;2023-02-26T08:52:11;13.10;57.00
13268;DHT22;6702;47.068;15.458;2023-02-26T08:55:14;13.90;51.80
13268;DHT22;6702;47.068;15.458;2023-02-26T08:58:19;14.30;50.20
13268;DHT22;6702;47.068;15.458;2023-02-26T09:01:22;14.70;47.90
13268;DHT22;6702;47.068;15.458;2023-02-26T09:04:26;15.00;44.20
13268;DHT22;6702;47.068;15.458;2023-02-26T09:07:32;15.00;42.50
13268;DHT22;6702;47.068;15.458;2023-02-26T09:10:35;15.40;41.30
13268;DHT22;6702;47.068;15.458;2023-02-26T09:13:42;16.20;39.40
13268;DHT22;6702;47.068;15.458;2023-02-26T09:16:45;16.40;37.50
13268;DHT22;6702;47.068;15.458;2023-02-26T09:19:51;16.20;36.00
13268;DHT22;6702;47.068;15.458;2023-02-26T09:22:55;16.10;36.50
13268;DHT22;6702;47.068;15.458;2023-02-26T09:25:58;15.70;37.70
13268;DHT22;6702;47.068;15.458;2023-02-26T09:29:03;15.40;37.80
13268;DHT22;6702;47.068;15.458;2023-02-26T09:32:06;15.10;37.60
13268;DHT22;6702;47.068;15.458;2023-02-26T09:35:10;15.10;36.20
13268;DHT22;6702;47.068;15.458;2023-02-26T09:38:13;15.00;35.70
13268;DHT22;6702;47.068;15.458;2023-02-26T09:41:22;14.80;36.30
13268;DHT22;6702;47.068;15.458;2023-02-26T09:44:30;14.40;37.60
13268;DHT22;6702;47.068;15.458;2023-02-26T09:47:37;14.20;37.80
13268;DHT22;6702;47.068;15.458;2023-02-26T09:50:45;14.10;37.50
13268;DHT22;6702;47.068;15.458;2023-02-26T09:53:49;14.60;37.60
13268;DHT22;6702;47.068;15.458;2023-02-26T09:56:57;15.10;37.80
13268;DHT22;6702;47.068;15.458;2023-02-26T10:00:13;14.80;34.00
13268;DHT22;6702;47.068;15.458;2023-02-26T10:03:26;14.80;35.30
13268;DHT22;6702;47.068;15.458;2023-02-26T10:06:32;15.50;35.30
13268;DHT22;6702;47.068;15.458;2023-02-26T10:09:47;16.20;34.10
13268;DHT22;6702;47.068;15.458;2023-02-26T10:12:53;15.30;33.40
13268;DHT22;6702;47.068;15.458;2023-02-26T10:16:08;14.60;33.70
13268;DHT22;6702;47.068;15.458;2023-02-26T10:19:16;14.10;35.20
13268;DHT22;6702;47.068;15.458;2023-02-26T10:22:25;13.60;36.70
13268;DHT22;6702;47.068;15.458;2023-02-26T10:25:33;13.30;35.80
13268;DHT22;6702;47.068;15.458;2023-02-26T10:28:52;13.70;37.20
13268;DHT22;6702;47.068;15.458;2023-02-26T10:32:05;14.40;36.50
13268;DHT22;6702;47.068;15.458;2023-02-26T10:35:16;14.70;35.60
13268;DHT22;6702;47.068;15.458;2023-02-26T10:38:23;14.60;34.90
13268;DHT22;6702;47.068;15.458;2023-02-26T10:41:29;13.90;34.90
13268;DHT22;6702;47.068;15.458;2023-02-26T10:44:36;13.60;36.10
13268;DHT22;6702;47.068;15.458;2023-02-26T10:47:48;13.50;35.80
13268;DHT22;6702;47.068;15.458;2023-02-26T10:50:56;13.60;36.00
13268;DHT22;6702;47.068;15.458;2023-02-26T10:54:04;13.80;35.70
13268;DHT22;6702;47.068;15.458;2023-02-26T10:57:17;14.00;35.80
13268;DHT22;6702;47.068;15.458;2023-02-26T11:00:23;13.80;36.10
13268;DHT22;6702;47.068;15.458;2023-02-26T11:03:31;13.60;36.80
13268;DHT22;6702;47.068;15.458;2023-02-26T11:06:39;13.30;36.50
13268;DHT22;6702;47.068;15.458;2023-02-26T11:09:45;13.20;36.20
13268;DHT22;6702;47.068;15.458;2023-02-26T11:12:49;13.20;37.30
13268;DHT22;6702;47.068;15.458;2023-02-26T11:15:53;13.10;35.90
13268;DHT22;6702;47.068;15.458;2023-02-26T11:19:00;12.60;35.60
13268;DHT22;6702;47.068;15.458;2023-02-26T11:22:04;12.30;36.00
13268;DHT22;6702;47.068;15.458;2023-02-26T11:25:12;11.80;35.30
13268;DHT22;6702;47.068;15.458;2023-02-26T11:28:22;11.40;36.90
13268;DHT22;6702;47.068;15.458;2023-02-26T11:31:28;11.20;36.70
13268;DHT22;6702;47.068;15.458;2023-02-26T11:34:34;11.00;37.40
13268;DHT22;6702;47.068;15.458;2023-02-26T11:37:40;10.90;38.10
13268;DHT22;6702;47.068;15.458;2023-02-26T11:40:52;10.70;38.00
13268;DHT22;6702;47.068;15.458;2023-02-26T11:44:00;10.60;37.40
13268;DHT22;6702;47.068;15.458;2023-02-26T12:35:41;8.50;42.70
13268;DHT22;6702;47.068;15.458;2023-02-26T12:38:54;8.30;43.80
13268;DHT22;6702;47.068;15.458;2023-02-26T12:42:11;8.10;44.20
13268;DHT22;6702;47.068;15.458;2023-02-26T12:45:35;8.00;45.00
13268;DHT22;6702;47.068;15.458;2023-02-26T12:49:10;7.90;45.50
13268;DHT22;6702;47.068;15.458;2023-02-26T12:52:37;7.90;47.80
13268;DHT22;6702;47.068;15.458;2023-02-26T12:55:57;7.90;49.00
13268;DHT22;6702;47.068;15.458;2023-02-26T12:59:15;7.90;50.00
13268;DHT22;6702;47.068;15.458;2023-02-26T13:06:04;8.00;50.80
13268;DHT22;6702;47.068;15.458;2023-02-26T13:09:22;8.10;50.50
13268;DHT22;6702;47.068;15.458;2023-02-26T13:12:37;8.30;50.20
13268;DHT22;6702;47.068;15.458;2023-02-26T13:15:59;8.40;48.40
13268;DHT22;6702;47.068;15.458;2023-02-26T13:19:10;8.60;48.40
13268;DHT22;6702;47.068;15.458;2023-02-26T13:22:20;8.80;47.50
13268;DHT22;6702;47.068;15.458;2023-02-26T13:25:34;8.90;46.20
13268;DHT22;6702;47.068;15.458;2023-02-26T13:28:43;8.90;45.40
13268;DHT22;6702;47.068;15.458;2023-02-26T13:31:52;8.90;43.50
13268;DHT22;6702;47.068;15.458;2023-02-26T13:35:00;8.80;42.80
13268;DHT22;6702;47.068;15.458;2023-02-26T13:38:15;8.60;42.10
13268;DHT22;6702;47.068;15.458;2023-02-26T13:41:25;8.50;41.70
13268;DHT22;6702;47.068;15.458;2023-02-26T13:44:38;8.30;42.90
13268;DHT22;6702;47.068;15.458;2023-02-26T13:47:59;8.20;43.50
13268;DHT22;6702;47.068;15.458;2023-02-26T13:51:13;7.90;42.60
13268;DHT22;6702;47.068;15.458;2023-02-26T13:54:41;7.80;43.30
13268;DHT22;6702;47.068;15.458;2023-02-26T13:57:51;7.70;42.70
13268;DHT22;6702;47.068;15.458;2023-02-26T14:01:03;7.60;42.60
13268;DHT22;6702;47.068;15.458;2023-02-26T14:04:23;7.50;41.80
13268;DHT22;6702;47.068;15.458;2023-02-26T14:07:48;7.30;41.70
13268;DHT22;6702;47.068;15.458;2023-02-26T14:10:58;7.20;42.90
13268;DHT22;6702;47.068;15.458;2023-02-26T14:14:11;7.20;42.80
13268;DHT22;6702;47.068;15.458;2023-02-26T14:17:36;7.10;42.10
13268;DHT22;6702;47.068;15.458;2023-02-26T14:20:40;7.00;42.80
13268;DHT22;6702;47.068;15.458;2023-02-26T14:23:47;7.00;42.40
13268;DHT22;6702;47.068;15.458;2023-02-26T14:27:21;6.90;43.00
13268;DHT22;6702;47.068;15.458;2023-02-26T14:30:32;6.90;42.10
13268;DHT22;6702;47.068;15.458;2023-02-26T14:33:39;6.80;43.50
13268;DHT22;6702;47.068;15.458;2023-02-26T14:36:47;6.90;43.50
13268;DHT22;6702;47.068;15.458;2023-02-26T14:39:56;6.80;42.60
13268;DHT22;6702;47.068;15.458;2023-02-26T14:43:03;6.70;42.40
13268;DHT22;6702;47.068;15.458;2023-02-26T14:46:10;6.70;42.10
13268;DHT22;6702;47.068;15.458;2023-02-26T14:49:19;6.60;42.70
13268;DHT22;6702;47.068;15.458;2023-02-26T14:56:00;6.70;43.30
13268;DHT22;6702;47.068;15.458;2023-02-26T14:59:28;6.70;43.10
13268;DHT22;6702;47.068;15.458;2023-02-26T15:02:45;6.60;43.10
13268;DHT22;6702;47.068;15.458;2023-02-26T15:06:05;6.60;43.80
13268;DHT22;6702;47.068;15.458;2023-02-26T15:09:17;6.50;44.10
13268;DHT22;6702;47.068;15.458;2023-02-26T15:12:37;6.60;44.50
13268;DHT22;6702;47.068;15.458;2023-02-26T15:15:54;6.60;43.40
13268;DHT22;6702;47.068;15.458;2023-02-26T15:19:12;6.60;44.00
13268;DHT22;6702;47.068;15.458;2023-02-26T15:22:33;6.50;44.20
13268;DHT22;6702;47.068;15.458;2023-02-26T15:25:43;6.50;45.10
13268;DHT22;6702;47.068;15.458;2023-02-26T15:28:49;6.50;45.00
13268;DHT22;6702;47.068;15.458;2023-02-26T15:31:56;6.50;45.70
13268;DHT22;6702;47.068;15.458;2023-02-26T15:35:14;6.60;45.50
13268;DHT22;6702;47.068;15.458;2023-02-26T15:38:21;6.60;44.80
13268;DHT22;6702;47.068;15.458;2023-02-26T15:41:29;6.60;44.80
13268;DHT22;6702;47.068;15.458;2023-02-26T15:44:33;6.60;44.90
13268;DHT22;6702;47.068;15.458;2023-02-26T15:47:43;6.60;45.30
13268;DHT22;6702;47.068;15.458;2023-02-26T15:50:55;6.50;45.30
13268;DHT22;6702;47.068;15.458;2023-02-26T15:54:00;6.60;45.40
13268;DHT22;6702;47.068;15.458;2023-02-26T15:57:06;6.60;45.70
13268;DHT22;6702;47.068;15.458;2023-02-26T16:00:16;6.50;45.30
13268;DHT22;6702;47.068;15.458;2023-02-26T16:03:26;6.50;45.70
13268;DHT22;6702;47.068;15.458;2023-02-26T16:06:36;6.40;45.90
13268;DHT22;6702;47.068;15.458;2023-02-26T16:09:45;6.40;46.50
13268;DHT22;6702;47.068;15.458;2023-02-26T16:12:51;6.40;46.90
13268;DHT22;6702;47.068;15.458;2023-02-26T16:16:03;6.40;47.30
13268;DHT22;6702;47.068;15.458;2023-02-26T16:19:13;6.40;47.50
13268;DHT22;6702;47.068;15.458;2023-02-26T16:22:24;6.40;47.20
13268;DHT22;6702;47.068;15.458;2023-02-26T16:25:32;6.30;47.30
13268;DHT22;6702;47.068;15.458;2023-02-26T16:28:42;6.20;47.70
13268;DHT22;6702;47.068;15.458;2023-02-26T16:31:51;6.20;48.20
13268;DHT22;6702;47.068;15.458;2023-02-26T16:35:09;6.20;48.20
13268;DHT22;6702;47.068;15.458;2023-02-26T16:38:20;6.20;47.90
13268;DHT22;6702;47.068;15.458;2023-02-26T16:41:30;6.20;47.70
13268;DHT22;6702;47.068;15.458;2023-02-26T16:44:48;6.00;48.00
13268;DHT22;6702;47.068;15.458;2023-02-26T16:47:56;5.90;48.10
13268;DHT22;6702;47.068;15.458;2023-02-26T16:51:05;5.90;48.20
13268;DHT22;6702;47.068;15.458;2023-02-26T16:54:18;5.90;48.30
13268;DHT22;6702;47.068;15.458;2023-02-26T16:57:30;5.90;48.30
13268;DHT22;6702;47.068;15.458;2023-02-26T17:00:35;5.80;48.50
13268;DHT22;6702;47.068;15.458;2023-02-26T17:03:42;5.90;48.60
13268;DHT22;6702;47.068;15.458;2023-02-26T17:06:52;5.80;48.30
13268;DHT22;6702;47.068;15.458;2023-02-26T17:10:08;5.80;48.10
13268;DHT22;6702;47.068;15.458;2023-02-26T17:13:24;5.80;48.70
13268;DHT22;6702;47.068;15.458;2023-02-26T17:16:34;5.80;48.60
13268;DHT22;6702;47.068;15.458;2023-02-26T17:19:40;5.80;48.80
13268;DHT22;6702;47.068;15.458;2023-02-26T17:22:45;5.70;49.10
13268;DHT22;6702;47.068;15.458;2023-02-26T17:25:52;5.70;48.90
13268;DHT22;6702;47.068;15.458;2023-02-26T17:28:58;5.80;48.90
13268;DHT22;6702;47.068;15.458;2023-02-26T17:32:04;5.70;48.70
13268;DHT22;6702;47.068;15.458;2023-02-26T17:35:12;5.70;48.70
13268;DHT22;6702;47.068;15.458;2023-02-26T17:38:18;5.70;47.50
13268;DHT22;6702;47.068;15.458;2023-02-26T17:41:27;5.60;47.30
13268;DHT22;6702;47.068;15.458;2023-02-26T17:44:32;5.50;47.40
13268;DHT22;6702;47.068;15.458;2023-02-26T17:47:37;5.50;48.00
13268;DHT22;6702;47.068;15.458;2023-02-26T17:50:44;5.50;48.20
13268;DHT22;6702;47.068;15.458;2023-02-26T17:53:50;5.40;48.40
13268;DHT22;6702;47.068;15.458;2023-02-26T17:56:57;5.50;48.30
13268;DHT22;6702;47.068;15.458;2023-02-26T18:00:03;5.50;48.70
13268;DHT22;6702;47.068;15.458;2023-02-26T18:03:09;5.50;48.40
13268;DHT22;6702;47.068;15.458;2023-02-26T18:06:14;5.40;48.30
13268;DHT22;6702;47.068;15.458;2023-02-26T18:09:19;5.50;47.80
13268;DHT22;6702;47.068;15.458;2023-02-26T18:12:26;5.40;48.00
13268;DHT22;6702;47.068;15.458;2023-02-26T18:15:31;5.50;47.90
13268;DHT22;6702;47.068;15.458;2023-02-26T18:18:36;5.50;48.30
13268;DHT22;6702;47.068;15.458;2023-02-26T18:21:40;5.40;48.30
13268;DHT22;6702;47.068;15.458;2023-02-26T18:24:45;5.40;48.30
13268;DHT22;6702;47.068;15.458;2023-02-26T18:27:55;5.50;48.10
13268;DHT22;6702;47.068;15.458;2023-02-26T18:31:04;5.50;47.60
13268;DHT22;6702;47.068;15.458;2023-02-26T18:34:11;5.40;47.40
13268;DHT22;6702;47.068;15.458;2023-02-26T18:37:17;5.40;47.80
13268;DHT22;6702;47.068;15.458;2023-02-26T18:40:26;5.40;47.60
13268;DHT22;6702;47.068;15.458;2023-02-26T18:43:32;5.30;48.00
13268;DHT22;6702;47.068;15.458;2023-02-26T18:46:38;5.30;48.10
13268;DHT22;6702;47.068;15.458;2023-02-26T18:49:43;5.20;48.50
13268;DHT22;6702;47.068;15.458;2023-02-26T18:52:48;5.20;47.50
13268;DHT22;6702;47.068;15.458;2023-02-26T18:55:54;5.20;55.70
13268;DHT22;6702;47.068;15.458;2023-02-26T18:59:01;5.30;52.30
13268;DHT22;6702;47.068;15.458;2023-02-26T19:02:07;5.30;49.90
13268;DHT22;6702;47.068;15.458;2023-02-26T19:05:14;5.30;49.20
13268;DHT22;6702;47.068;15.458;2023-02-26T19:08:24;5.30;49.00
13268;DHT22;6702;47.068;15.458;2023-02-26T19:11:30;5.30;48.90
13268;DHT22;6702;47.068;15.458;2023-02-26T19:14:36;5.30;48.60
13268;DHT22;6702;47.068;15.458;2023-02-26T19:17:41;5.30;48.40
13268;DHT22;6702;47.068;15.458;2023-02-26T19:20:47;5.20;48.80
13268;DHT22;6702;47.068;15.458;2023-02-26T19:23:52;5.30;49.40
13268;DHT22;6702;47.068;15.458;2023-02-26T19:26:58;5.30;49.60
13268;DHT22;6702;47.068;15.458;2023-02-26T19:30:06;5.30;49.70
13268;DHT22;6702;47.068;15.458;2023-02-26T19:33:11;5.30;49.40
13268;DHT22;6702;47.068;15.458;2023-02-26T19:36:16;5.30;49.10
13268;DHT22;6702;47.068;15.458;2023-02-26T19:39:23;5.30;49.20
13268;DHT22;6702;47.068;15.458;2023-02-26T19:42:29;5.20;49.10
13268;DHT22;6702;47.068;15.458;2023-02-26T19:45:36;5.20;49.30
13268;DHT22;6702;47.068;15.458;2023-02-26T19:48:42;5.20;49.10
13268;DHT22;6702;47.068;15.458;2023-02-26T19:51:46;5.20;49.20
13268;DHT22;6702;47.068;15.458;2023-02-26T19:54:51;5.20;49.80
13268;DHT22;6702;47.068;15.458;2023-02-26T19:57:57;5.20;50.20
13268;DHT22;6702;47.068;15.458;2023-02-26T20:01:06;5.20;50.50
13268;DHT22;6702;47.068;15.458;2023-02-26T20:04:11;5.20;50.60
13268;DHT22;6702;47.068;15.458;2023-02-26T20:07:16;5.20;50.70
13268;DHT22;6702;47.068;15.458;2023-02-26T20:10:25;5.20;50.70
13268;DHT22;6702;47.068;15.458;2023-02-26T20:13:31;5.20;50.70
13268;DHT22;6702;47.068;15.458;2023-02-26T20:16:38;5.30;50.50
13268;DHT22;6702;47.068;15.458;2023-02-26T20:19:44;5.30;50.60
13268;DHT22;6702;47.068;15.458;2023-02-26T20:22:49;5.30;50.50
13268;DHT22;6702;47.068;15.458;2023-02-26T20:25:54;5.30;50.60
13268;DHT22;6702;47.068;15.458;2023-02-26T20:28:59;5.30;50.70
13268;DHT22;6702;47.068;15.458;2023-02-26T20:32:07;5.30;50.80
13268;DHT22;6702;47.068;15.458;2023-02-26T20:35:13;5.30;50.80
13268;DHT22;6702;47.068;15.458;2023-02-26T20:38:18;5.30;50.90
13268;DHT22;6702;47.068;15.458;2023-02-26T20:41:23;5.20;50.10
13268;DHT22;6702;47.068;15.458;2023-02-26T20:44:30;5.20;50.30
13268;DHT22;6702;47.068;15.458;2023-02-26T20:47:36;5.20;49.70
13268;DHT22;6702;47.068;15.458;2023-02-26T20:50:41;5.20;49.40
13268;DHT22;6702;47.068;15.458;2023-02-26T20:53:47;5.20;49.10
13268;DHT22;6702;47.068;15.458;2023-02-26T20:56:53;5.10;48.80
13268;DHT22;6702;47.068;15.458;2023-02-26T20:59:58;5.10;48.70
13268;DHT22;6702;47.068;15.458;2023-02-26T21:03:09;5.10;48.60
13268;DHT22;6702;47.068;15.458;2023-02-26T21:06:14;5.00;48.80